Time;durP1;ratioP1;P1;durP2;ratioP2;P2;SDS_P1;SDS_P2;PMS_P1;PMS_P2;Temp;Humidity;BMP_temperature;BMP_pressure;BME280_temperature;BME280_humidity;BME280_pressure;Samples;Min_cycle;Max_cycle;Signal;HPM_P1;HPM_P2
2022/03/01 00:01:04;;;;;;;;;;;3.00;99.90;;;;;;5071500;28;19924;-65
2022/03/01 00:03:30;;;;;;;;;;;3.00;99.90;;;;;;5070389;28;19929;-65
2022/03/01 00:05:55;;;;;;;;;;;3.00;99.90;;;;;;5070695;28;19925;-64
2022/03/01 00:08:21;;;;;;;;;;;3.30;99.90;;;;;;5069715;28;19925;-65
2022/03/01 00:10:46;;;;;;;;;;;2.90;99.90;;;;;;5071800;28;19992;-66
2022/03/01 00:13:12;;;;;;;;;;;2.90;99.90;;;;;;5070001;28;19925;-65
2022/03/01 00:15:37;;;;;;;;;;;2.90;99.90;;;;;;5070602;28;19931;-65
2022/03/01 00:18:03;;;;;;;;;;;2.90;99.90;;;;;;5070630;28;20023;-65
2022/03/01 00:20:28;;;;;;;;;;;2.80;99.90;;;;;;5071273;28;20391;-65
2022/03/01 00:22:54;;;;;;;;;;;2.80;99.90;;;;;;5070681;28;19925;-64
2022/03/01 00:25:20;;;;;;;;;;;2.80;99.90;;;;;;5071202;28;19990;-65
2022/03/01 00:27:45;;;;;;;;;;;2.70;99.90;;;;;;5053861;28;19932;-66
2022/03/01 00:30:11;;;;;;;;;;;2.80;99.90;;;;;;5071559;28;19932;-64
2022/03/01 00:32:37;;;;;;;;;;;2.70;99.90;;;;;;5075152;28;19945;-64
2022/03/01 00:35:03;;;;;;;;;;;2.70;99.90;;;;;;5075087;28;19931;-64
2022/03/01 00:37:28;;;;;;;;;;;2.70;99.90;;;;;;5057185;28;19925;-64
2022/03/01 00:39:54;;;;;;;;;;;2.70;99.90;;;;;;5073816;28;20408;-66
2022/03/01 00:42:20;;;;;;;;;;;2.70;99.90;;;;;;5073737;28;19928;-66
2022/03/01 00:44:45;;;;;;;;;;;2.60;99.90;;;;;;5073742;28;20018;-65
2022/03/01 00:47:11;;;;;;;;;;;2.60;99.90;;;;;;5074557;28;19925;-65
2022/03/01 00:49:36;;;;;;;;;;;2.60;99.90;;;;;;5073555;28;19975;-65
2022/03/01 00:52:02;;;;;;;;;;;2.50;99.90;;;;;;5073683;28;19924;-64
2022/03/01 00:54:28;;;;;;;;;;;2.50;99.90;;;;;;5073990;28;19928;-65
2022/03/01 00:56:53;;;;;;;;;;;2.50;99.90;;;;;;5073474;28;19924;-67
2022/03/01 00:59:19;;;;;;;;;;;2.50;99.90;;;;;;5074070;28;20332;-65
2022/03/01 01:01:44;;;;;;;;;;;2.40;99.90;;;;;;5072901;28;19924;-64
2022/03/01 01:04:10;;;;;;;;;;;2.60;99.90;;;;;;5072972;28;19989;-70
2022/03/01 01:06:35;;;;;;;;;;;2.40;99.90;;;;;;5073505;28;19925;-64
2022/03/01 01:09:01;;;;;;;;;;;2.40;99.90;;;;;;5073233;28;20389;-65
2022/03/01 01:11:27;;;;;;;;;;;2.40;99.90;;;;;;5106503;28;20322;-65
2022/03/01 01:13:53;;;;;;;;;;;2.30;99.90;;;;;;5073341;28;20269;-65
2022/03/01 01:16:18;;;;;;;;;;;2.30;99.90;;;;;;5073916;28;20358;-65
2022/03/01 01:18:44;;;;;;;;;;;2.30;99.90;;;;;;5073334;28;19925;-64
2022/03/01 01:21:13;;;;;;;;;;;2.30;99.90;;;;;;5072913;28;19930;-64
2022/03/01 01:23:39;;;;;;;;;;;2.20;99.90;;;;;;5074003;28;19931;-64
2022/03/01 01:26:05;;;;;;;;;;;2.30;99.90;;;;;;5056263;28;19931;-64
2022/03/01 01:28:30;;;;;;;;;;;2.40;99.90;;;;;;5073890;28;19928;-65
2022/03/01 01:30:56;;;;;;;;;;;2.20;99.90;;;;;;5073048;28;19931;-66
2022/03/01 01:33:21;;;;;;;;;;;2.20;99.90;;;;;;5072278;28;20043;-65
2022/03/01 01:35:47;;;;;;;;;;;2.20;99.90;;;;;;5072948;28;20274;-65
2022/03/01 01:38:13;;;;;;;;;;;2.20;99.90;;;;;;5072929;28;19993;-64
2022/03/01 01:40:38;;;;;;;;;;;2.20;99.90;;;;;;5072392;28;19924;-66
2022/03/01 01:43:04;;;;;;;;;;;2.20;99.90;;;;;;5071747;28;19931;-65
2022/03/01 01:45:30;;;;;;;;;;;2.20;99.90;;;;;;5072341;28;19928;-64
2022/03/01 01:47:57;;;;;;;;;;;2.20;99.90;;;;;;5072200;28;19964;-64
2022/03/01 01:50:23;;;;;;;;;;;2.10;99.90;;;;;;5073308;28;20408;-64
2022/03/01 01:52:49;;;;;;;;;;;2.20;99.90;;;;;;5072122;28;19924;-64
2022/03/01 01:55:16;;;;;;;;;;;2.10;99.90;;;;;;5073067;28;19988;-66
2022/03/01 01:57:41;;;;;;;;;;;2.20;99.90;;;;;;5071846;28;19925;-65
2022/03/01 02:00:09;;;;;;;;;;;2.10;99.90;;;;;;5072502;28;19931;-65
2022/03/01 02:02:35;;;;;;;;;;;2.10;99.90;;;;;;5071983;28;20034;-65
2022/03/01 02:05:02;;;;;;;;;;;2.10;99.90;;;;;;5073168;28;19972;-65
2022/03/01 02:07:28;;;;;;;;;;;2.10;99.90;;;;;;5071953;28;19924;-66
2022/03/01 02:09:53;;;;;;;;;;;2.00;99.90;;;;;;5072005;28;20528;-65
2022/03/01 02:12:19;;;;;;;;;;;2.10;99.90;;;;;;5072119;28;20298;-69
2022/03/01 02:14:45;;;;;;;;;;;2.00;99.90;;;;;;5105504;28;19982;-64
2022/03/01 02:17:10;;;;;;;;;;;2.00;99.90;;;;;;5072046;28;20466;-64
2022/03/01 02:19:37;;;;;;;;;;;2.50;99.90;;;;;;5071674;28;20011;-65
2022/03/01 02:22:04;;;;;;;;;;;2.00;99.90;;;;;;5072046;28;19925;-65
2022/03/01 02:24:30;;;;;;;;;;;2.00;99.90;;;;;;5071373;28;20015;-65
2022/03/01 02:27:00;;;;;;;;;;;2.00;99.90;;;;;;5072927;28;20023;-65
2022/03/01 02:29:26;;;;;;;;;;;1.90;99.90;;;;;;5105143;28;19928;-65
2022/03/01 02:31:53;;;;;;;;;;;2.10;99.90;;;;;;5071875;28;20349;-65
2022/03/01 02:34:19;;;;;;;;;;;1.90;99.90;;;;;;5072534;28;20389;-64
2022/03/01 02:36:45;;;;;;;;;;;2.30;99.90;;;;;;5072312;28;19928;-64
2022/03/01 02:39:11;;;;;;;;;;;1.90;99.90;;;;;;5071688;28;19928;-64
2022/03/01 02:41:37;;;;;;;;;;;1.90;99.90;;;;;;5071066;28;20000;-64
2022/03/01 02:44:03;;;;;;;;;;;2.10;99.90;;;;;;5072058;28;20386;-66
2022/03/01 02:46:28;;;;;;;;;;;1.90;99.90;;;;;;5072419;28;19970;-65
2022/03/01 02:48:54;;;;;;;;;;;1.90;99.90;;;;;;5071295;28;19928;-64
2022/03/01 02:51:19;;;;;;;;;;;1.90;99.90;;;;;;5072386;28;19949;-65
2022/03/01 02:53:45;;;;;;;;;;;1.80;99.90;;;;;;5071637;28;19928;-64
2022/03/01 02:56:11;;;;;;;;;;;1.80;99.90;;;;;;5072296;28;20417;-64
2022/03/01 02:58:36;;;;;;;;;;;1.80;99.90;;;;;;5054499;28;20005;-66
2022/03/01 03:01:02;;;;;;;;;;;1.80;99.90;;;;;;5071309;28;19947;-65
2022/03/01 03:03:28;;;;;;;;;;;1.80;99.90;;;;;;5071949;28;19925;-65
2022/03/01 03:05:53;;;;;;;;;;;1.80;99.90;;;;;;5070970;28;19924;-64
2022/03/01 03:08:19;;;;;;;;;;;1.80;99.90;;;;;;5070476;28;20072;-65
2022/03/01 03:10:44;;;;;;;;;;;1.70;99.90;;;;;;5070677;28;20015;-65
2022/03/01 03:13:10;;;;;;;;;;;1.80;99.90;;;;;;5071274;28;19974;-66
2022/03/01 03:15:37;;;;;;;;;;;1.70;99.90;;;;;;5071798;28;19925;-65
2022/03/01 03:18:03;;;;;;;;;;;1.70;99.90;;;;;;5071027;28;19925;-65
2022/03/01 03:20:29;;;;;;;;;;;1.70;99.90;;;;;;5070713;28;20326;-66
2022/03/01 03:22:54;;;;;;;;;;;1.70;99.90;;;;;;5071213;28;19924;-66
2022/03/01 03:25:20;;;;;;;;;;;1.70;99.90;;;;;;5071151;28;20074;-65
2022/03/01 03:27:45;;;;;;;;;;;1.70;99.90;;;;;;5071598;28;19924;-64
2022/03/01 03:30:11;;;;;;;;;;;1.70;99.90;;;;;;5070721;28;19968;-64
2022/03/01 03:32:37;;;;;;;;;;;1.70;99.90;;;;;;5054010;28;19925;-64
2022/03/01 03:35:03;;;;;;;;;;;1.70;99.90;;;;;;5071070;28;20381;-63
2022/03/01 03:37:29;;;;;;;;;;;1.70;99.90;;;;;;5104710;28;19935;-64
2022/03/01 03:39:55;;;;;;;;;;;2.00;99.90;;;;;;5071782;28;19924;-65
2022/03/01 03:42:20;;;;;;;;;;;2.20;99.90;;;;;;5070919;28;20289;-64
2022/03/01 03:44:46;;;;;;;;;;;1.80;99.90;;;;;;5071614;28;20069;-64
2022/03/01 03:47:12;;;;;;;;;;;1.90;99.90;;;;;;5070508;28;20305;-64
2022/03/01 03:49:38;;;;;;;;;;;1.90;99.90;;;;;;5070171;28;19925;-65
2022/03/01 03:52:07;;;;;;;;;;;1.90;99.90;;;;;;5071967;28;19924;-65
2022/03/01 03:54:32;;;;;;;;;;;1.90;99.90;;;;;;5069979;28;19994;-65
2022/03/01 03:56:58;;;;;;;;;;;1.90;99.90;;;;;;5071950;28;20354;-66
2022/03/01 03:59:24;;;;;;;;;;;1.90;99.90;;;;;;5071812;28;20254;-66
2022/03/01 04:01:49;;;;;;;;;;;2.00;99.90;;;;;;5071475;28;20163;-65
2022/03/01 04:04:15;;;;;;;;;;;2.00;99.90;;;;;;5054093;28;20298;-65
2022/03/01 04:06:41;;;;;;;;;;;1.90;99.90;;;;;;5057539;28;19993;-65
2022/03/01 04:09:06;;;;;;;;;;;1.90;99.90;;;;;;5074279;28;19924;-64
2022/03/01 04:11:33;;;;;;;;;;;2.50;99.90;;;;;;5075517;28;20030;-65
2022/03/01 04:13:59;;;;;;;;;;;2.00;99.90;;;;;;5074276;28;19947;-64
2022/03/01 04:16:27;;;;;;;;;;;2.00;99.90;;;;;;5075655;28;19925;-64
2022/03/01 04:18:53;;;;;;;;;;;2.00;99.90;;;;;;5074165;28;20019;-64
2022/03/01 04:21:19;;;;;;;;;;;2.10;99.90;;;;;;5108112;28;19983;-64
2022/03/01 04:23:44;;;;;;;;;;;2.10;99.90;;;;;;5075067;28;20023;-65
2022/03/01 04:26:11;;;;;;;;;;;2.10;99.90;;;;;;5075395;28;19979;-64
2022/03/01 04:28:36;;;;;;;;;;;2.10;99.90;;;;;;5075029;28;20027;-66
2022/03/01 04:31:02;;;;;;;;;;;2.10;99.90;;;;;;5075086;28;19967;-65
2022/03/01 04:33:28;;;;;;;;;;;2.20;99.90;;;;;;5057571;28;19925;-65
2022/03/01 04:35:54;;;;;;;;;;;2.20;99.90;;;;;;5073766;28;19969;-65
2022/03/01 04:38:20;;;;;;;;;;;2.20;99.90;;;;;;5074015;28;20170;-65
2022/03/01 04:40:46;;;;;;;;;;;2.30;99.90;;;;;;5074655;28;19924;-67
2022/03/01 04:43:12;;;;;;;;;;;2.30;99.90;;;;;;5073869;28;19932;-65
2022/03/01 04:45:38;;;;;;;;;;;2.30;99.90;;;;;;5073950;28;20374;-68
2022/03/01 04:48:04;;;;;;;;;;;2.40;99.90;;;;;;5057132;28;19928;-65
2022/03/01 04:50:29;;;;;;;;;;;2.40;99.90;;;;;;5073858;28;19924;-65
2022/03/01 04:52:55;;;;;;;;;;;2.60;99.90;;;;;;5073197;28;19924;-66
2022/03/01 04:55:20;;;;;;;;;;;2.60;99.90;;;;;;5106894;28;20275;-65
2022/03/01 04:57:46;;;;;;;;;;;2.60;99.90;;;;;;5056843;28;19932;-66
2022/03/01 05:00:12;;;;;;;;;;;2.60;99.90;;;;;;5073757;28;20019;-64
2022/03/01 05:02:39;;;;;;;;;;;2.60;99.90;;;;;;5074609;28;19925;-64
2022/03/01 05:05:10;;;;;;;;;;;2.60;99.90;;;;;;5107135;28;19970;-65
2022/03/01 05:07:39;;;;;;;;;;;2.60;99.90;;;;;;5073602;28;19974;-65
2022/03/01 05:10:05;;;;;;;;;;;2.60;99.90;;;;;;5055956;28;19924;-64
2022/03/01 05:12:31;;;;;;;;;;;2.60;99.90;;;;;;5073145;28;20204;-67
2022/03/01 05:14:57;;;;;;;;;;;2.70;99.90;;;;;;5072930;28;20023;-65
2022/03/01 05:17:22;;;;;;;;;;;2.70;99.90;;;;;;5074293;28;19995;-65
2022/03/01 05:19:48;;;;;;;;;;;2.70;99.90;;;;;;5073942;28;19971;-65
2022/03/01 05:22:13;;;;;;;;;;;2.70;99.90;;;;;;5073394;28;19920;-64
2022/03/01 05:24:39;;;;;;;;;;;2.90;99.90;;;;;;5074178;28;20025;-64
2022/03/01 05:27:05;;;;;;;;;;;2.70;99.90;;;;;;5072637;28;19925;-64
2022/03/01 05:29:30;;;;;;;;;;;2.70;99.90;;;;;;5072806;28;19932;-66
2022/03/01 05:31:56;;;;;;;;;;;2.90;99.90;;;;;;5073748;28;19989;-65
2022/03/01 05:34:21;;;;;;;;;;;2.90;99.90;;;;;;5074011;28;19925;-65
2022/03/01 05:36:47;;;;;;;;;;;2.80;99.90;;;;;;5073733;28;20140;-65
2022/03/01 05:39:12;;;;;;;;;;;2.80;99.90;;;;;;5072990;28;20369;-66
2022/03/01 05:41:38;;;;;;;;;;;2.80;99.90;;;;;;5074011;28;19924;-64
2022/03/01 05:44:04;;;;;;;;;;;2.80;99.90;;;;;;5072622;28;19931;-63
2022/03/01 05:46:30;;;;;;;;;;;2.80;99.90;;;;;;5073743;28;19929;-65
2022/03/01 05:48:56;;;;;;;;;;;2.80;99.90;;;;;;5055551;28;19924;-65
2022/03/01 05:51:22;;;;;;;;;;;2.80;99.90;;;;;;5073658;28;19924;-64
2022/03/01 05:53:49;;;;;;;;;;;2.80;99.90;;;;;;5072322;28;20445;-65
2022/03/01 05:56:15;;;;;;;;;;;2.90;99.90;;;;;;5073077;28;19924;-65
2022/03/01 05:58:40;;;;;;;;;;;2.90;99.90;;;;;;5072214;28;20423;-65
2022/03/01 06:01:06;;;;;;;;;;;2.90;99.90;;;;;;5072248;28;20205;-66
2022/03/01 06:03:32;;;;;;;;;;;2.90;99.90;;;;;;5055848;28;19993;-65
2022/03/01 06:05:57;;;;;;;;;;;2.90;99.90;;;;;;5071766;28;19997;-65
2022/03/01 06:08:23;;;;;;;;;;;3.00;99.90;;;;;;5072945;28;19931;-65
2022/03/01 06:10:49;;;;;;;;;;;2.90;99.90;;;;;;5071825;28;19973;-66
2022/03/01 06:13:14;;;;;;;;;;;2.90;99.90;;;;;;5073018;28;19924;-66
2022/03/01 06:15:40;;;;;;;;;;;2.90;99.90;;;;;;5073139;28;19928;-65
2022/03/01 06:18:05;;;;;;;;;;;3.00;99.90;;;;;;5071254;28;20386;-65
2022/03/01 06:20:31;;;;;;;;;;;3.00;99.90;;;;;;5072034;28;19936;-66
2022/03/01 06:22:57;;;;;;;;;;;3.00;99.90;;;;;;5105599;28;20316;-65
2022/03/01 06:25:22;;;;;;;;;;;3.00;99.90;;;;;;5071837;28;19973;-65
2022/03/01 06:27:48;;;;;;;;;;;3.10;99.90;;;;;;5054701;28;20356;-65
2022/03/01 06:30:13;;;;;;;;;;;3.50;99.90;;;;;;5054443;28;19931;-65
2022/03/01 06:32:39;;;;;;;;;;;3.00;99.90;;;;;;5105619;28;19931;-66
2022/03/01 06:35:05;;;;;;;;;;;3.10;99.90;;;;;;5054783;28;19920;-67
2022/03/01 06:37:31;;;;;;;;;;;3.10;99.90;;;;;;5072635;28;19935;-64
2022/03/01 06:39:56;;;;;;;;;;;3.10;99.90;;;;;;5054409;28;19931;-64
2022/03/01 06:42:22;;;;;;;;;;;3.10;99.90;;;;;;5105526;28;20394;-65
2022/03/01 06:44:47;;;;;;;;;;;3.10;99.90;;;;;;5072351;28;19975;-65
2022/03/01 06:47:13;;;;;;;;;;;3.50;99.90;;;;;;5071199;28;20348;-65
2022/03/01 06:49:38;;;;;;;;;;;3.20;99.90;;;;;;5072049;28;20046;-65
2022/03/01 06:52:04;;;;;;;;;;;3.20;99.90;;;;;;5070723;28;19924;-66
2022/03/01 06:54:30;;;;;;;;;;;3.20;99.90;;;;;;5071905;28;20366;-65
2022/03/01 06:56:56;;;;;;;;;;;3.20;99.90;;;;;;5071897;28;20011;-65
2022/03/01 06:59:24;;;;;;;;;;;3.20;99.90;;;;;;5071167;28;20348;-65
2022/03/01 07:01:50;;;;;;;;;;;3.30;99.90;;;;;;5071740;28;19974;-64
2022/03/01 07:04:15;;;;;;;;;;;3.30;99.90;;;;;;5054170;28;19931;-65
2022/03/01 07:06:41;;;;;;;;;;;3.30;99.90;;;;;;5070905;28;19925;-65
2022/03/01 07:09:06;;;;;;;;;;;3.30;99.90;;;;;;5071658;28;20290;-64
2022/03/01 07:11:32;;;;;;;;;;;3.30;99.90;;;;;;5070690;28;20302;-64
2022/03/01 07:13:58;;;;;;;;;;;3.40;99.90;;;;;;5070717;28;20346;-63
2022/03/01 07:16:23;;;;;;;;;;;3.40;99.90;;;;;;5072093;28;19925;-63
2022/03/01 07:18:49;;;;;;;;;;;3.50;99.90;;;;;;5071869;28;19924;-63
2022/03/01 07:21:14;;;;;;;;;;;3.50;99.90;;;;;;5070174;28;19971;-63
2022/03/01 07:23:40;;;;;;;;;;;3.50;99.90;;;;;;5071955;28;19931;-65
2022/03/01 07:26:07;;;;;;;;;;;3.60;99.90;;;;;;5071446;28;19978;-63
2022/03/01 07:28:33;;;;;;;;;;;3.60;99.90;;;;;;5071880;28;19972;-64
2022/03/01 07:30:58;;;;;;;;;;;3.70;99.90;;;;;;5071058;28;19971;-68
2022/03/01 07:33:24;;;;;;;;;;;3.70;99.90;;;;;;5071849;28;19934;-64
2022/03/01 07:35:49;;;;;;;;;;;3.70;99.90;;;;;;5070667;28;20392;-63
2022/03/01 07:38:15;;;;;;;;;;;3.70;99.90;;;;;;5070393;28;19998;-64
2022/03/01 07:40:41;;;;;;;;;;;3.90;99.90;;;;;;5074123;28;19974;-64
2022/03/01 07:43:07;;;;;;;;;;;3.80;99.90;;;;;;5074035;28;20426;-65
2022/03/01 07:45:34;;;;;;;;;;;3.80;99.90;;;;;;5075901;28;20297;-64
2022/03/01 07:48:01;;;;;;;;;;;3.90;99.90;;;;;;5074809;28;19924;-63
2022/03/01 07:50:27;;;;;;;;;;;3.90;99.90;;;;;;5074423;28;19932;-64
2022/03/01 07:52:53;;;;;;;;;;;3.90;99.90;;;;;;5074621;28;20259;-64
2022/03/01 07:55:19;;;;;;;;;;;4.00;99.90;;;;;;5075055;28;20030;-64
2022/03/01 07:57:45;;;;;;;;;;;4.00;99.90;;;;;;5074331;28;19925;-64
2022/03/01 08:00:11;;;;;;;;;;;4.00;99.90;;;;;;5074011;28;20296;-64
2022/03/01 08:02:37;;;;;;;;;;;4.00;99.90;;;;;;5075363;28;19978;-65
2022/03/01 08:05:06;;;;;;;;;;;4.10;99.90;;;;;;5074174;28;20014;-70
2022/03/01 08:07:33;;;;;;;;;;;4.10;99.90;;;;;;5074280;28;19924;-65
2022/03/01 08:09:58;;;;;;;;;;;4.20;99.90;;;;;;5074131;28;19931;-64
2022/03/01 08:12:24;;;;;;;;;;;4.20;99.90;;;;;;5073931;28;19940;-65
2022/03/01 08:14:50;;;;;;;;;;;4.20;99.90;;;;;;5073757;28;19928;-64
2022/03/01 08:17:17;;;;;;;;;;;4.20;99.90;;;;;;5073232;28;19932;-63
2022/03/01 08:19:42;;;;;;;;;;;4.30;99.90;;;;;;5073475;28;20289;-64
2022/03/01 08:22:09;;;;;;;;;;;4.30;99.90;;;;;;5073081;28;19929;-67
2022/03/01 08:24:34;;;;;;;;;;;4.40;99.90;;;;;;5074044;28;20389;-65
2022/03/01 08:27:00;;;;;;;;;;;4.40;99.90;;;;;;5056737;28;19929;-64
2022/03/01 08:29:28;;;;;;;;;;;4.40;99.90;;;;;;5073215;28;20506;-64
2022/03/01 08:31:53;;;;;;;;;;;4.40;99.90;;;;;;5073770;28;20007;-65
2022/03/01 08:34:19;;;;;;;;;;;4.50;99.90;;;;;;5073139;28;20029;-64
2022/03/01 08:36:45;;;;;;;;;;;4.50;99.90;;;;;;5073537;28;19987;-65
2022/03/01 08:39:10;;;;;;;;;;;4.60;99.90;;;;;;5073257;28;19935;-67
2022/03/01 08:41:36;;;;;;;;;;;4.50;99.90;;;;;;5056957;28;20019;-64
2022/03/01 08:44:03;;;;;;;;;;;4.60;99.90;;;;;;5056597;28;19930;-65
2022/03/01 08:46:28;;;;;;;;;;;4.60;99.90;;;;;;5074041;28;19998;-67
2022/03/01 08:48:55;;;;;;;;;;;4.70;99.90;;;;;;5072734;28;20242;-66
2022/03/01 08:51:21;;;;;;;;;;;4.80;99.90;;;;;;5072155;28;19928;-64
2022/03/01 08:53:48;;;;;;;;;;;4.90;99.90;;;;;;5056619;28;19928;-66
2022/03/01 08:56:15;;;;;;;;;;;5.00;99.90;;;;;;5071997;28;19924;-66
2022/03/01 08:58:44;;;;;;;;;;;5.10;99.90;;;;;;5073025;28;20019;-64
2022/03/01 09:01:10;;;;;;;;;;;5.20;99.90;;;;;;5073189;28;20278;-66
2022/03/01 09:03:36;;;;;;;;;;;5.30;99.90;;;;;;5072548;28;19925;-65
2022/03/01 09:06:05;;;;;;;;;;;5.40;99.90;;;;;;5073219;28;19931;-65
2022/03/01 09:08:35;;;;;;;;;;;5.50;99.90;;;;;;5072529;28;19924;-64
2022/03/01 09:11:01;;;;;;;;;;;5.60;99.90;;;;;;5072710;28;19924;-65
2022/03/01 09:13:27;;;;;;;;;;;5.90;99.90;;;;;;5072083;28;19931;-65
2022/03/01 09:15:53;;;;;;;;;;;6.10;99.90;;;;;;5072714;28;19931;-65
2022/03/01 09:18:21;;;;;;;;;;;6.30;99.90;;;;;;5072507;28;20297;-65
2022/03/01 09:20:47;;;;;;;;;;;6.30;99.90;;;;;;5072723;28;19931;-64
2022/03/01 09:23:13;;;;;;;;;;;6.40;99.90;;;;;;5072794;28;19931;-68
2022/03/01 09:25:39;;;;;;;;;;;6.40;99.90;;;;;;5072592;28;19925;-64
2022/03/01 09:28:04;;;;;;;;;;;6.60;99.90;;;;;;5072228;28;20362;-63
2022/03/01 09:30:30;;;;;;;;;;;6.70;99.90;;;;;;5072805;28;20424;-64
2022/03/01 09:32:55;;;;;;;;;;;6.70;99.90;;;;;;5055928;28;19925;-66
2022/03/01 09:35:21;;;;;;;;;;;6.70;99.90;;;;;;5071992;28;20012;-65
2022/03/01 09:37:47;;;;;;;;;;;6.70;99.90;;;;;;5055829;28;19925;-65
2022/03/01 09:40:12;;;;;;;;;;;6.70;99.90;;;;;;5072513;28;19974;-65
2022/03/01 09:42:39;;;;;;;;;;;6.60;99.90;;;;;;5071596;28;19924;-64
2022/03/01 09:45:05;;;;;;;;;;;6.60;99.90;;;;;;5055751;28;19924;-64
2022/03/01 09:47:31;;;;;;;;;;;6.60;99.90;;;;;;5071486;28;19924;-64
2022/03/01 09:49:57;;;;;;;;;;;6.50;99.90;;;;;;5073018;28;20207;-63
2022/03/01 09:52:22;;;;;;;;;;;6.50;99.90;;;;;;5105332;28;20071;-64
2022/03/01 09:54:49;;;;;;;;;;;6.50;99.90;;;;;;5055212;28;19925;-66
2022/03/01 09:57:15;;;;;;;;;;;6.50;99.90;;;;;;5071900;28;20239;-65
2022/03/01 09:59:40;;;;;;;;;;;6.60;99.90;;;;;;5071093;28;19929;-65
2022/03/01 10:02:07;;;;;;;;;;;6.50;99.90;;;;;;5054301;28;19934;-65
2022/03/01 10:04:32;;;;;;;;;;;6.50;99.90;;;;;;5037797;28;19932;-67
2022/03/01 10:07:02;;;;;;;;;;;6.60;99.90;;;;;;5072905;28;20290;-66
2022/03/01 10:09:27;;;;;;;;;;;6.70;99.90;;;;;;5054463;28;19947;-65
2022/03/01 10:11:53;;;;;;;;;;;6.80;99.90;;;;;;5055131;28;20366;-66
2022/03/01 10:14:32;;;;;;;;;;;7.00;99.90;;;;;;5070949;28;20019;-69
2022/03/01 10:16:58;;;;;;;;;;;7.10;99.90;;;;;;5072622;28;19980;-66
2022/03/01 10:19:24;;;;;;;;;;;7.30;99.90;;;;;;5071014;28;19972;-65
2022/03/01 10:21:57;;;;;;;;;;;7.40;99.90;;;;;;5071052;28;20378;-67
2022/03/01 10:24:22;;;;;;;;;;;7.50;99.90;;;;;;5070674;28;19924;-68
2022/03/01 10:26:49;;;;;;;;;;;7.60;99.90;;;;;;5071442;28;19931;-65
2022/03/01 10:29:15;;;;;;;;;;;7.80;99.90;;;;;;5072260;28;20275;-66
2022/03/01 10:31:42;;;;;;;;;;;7.80;99.90;;;;;;5054144;28;19975;-65
2022/03/01 10:34:10;;;;;;;;;;;7.90;99.90;;;;;;5070849;28;19972;-65
2022/03/01 10:36:40;;;;;;;;;;;7.90;99.90;;;;;;5070398;28;19924;-66
2022/03/01 10:39:10;;;;;;;;;;;8.10;99.90;;;;;;5071995;28;19970;-64
2022/03/01 10:41:37;;;;;;;;;;;8.10;99.90;;;;;;5070325;28;19982;-64
2022/03/01 10:44:03;;;;;;;;;;;8.20;99.90;;;;;;5071298;28;20366;-65
2022/03/01 10:46:30;;;;;;;;;;;8.20;99.90;;;;;;5071417;28;19924;-65
2022/03/01 10:49:05;;;;;;;;;;;8.20;99.90;;;;;;5070469;28;20019;-66
2022/03/01 10:51:33;;;;;;;;;;;8.30;99.90;;;;;;5069693;28;20195;-65
2022/03/01 10:53:59;;;;;;;;;;;8.30;99.90;;;;;;5071125;28;19982;-63
2022/03/01 10:56:33;;;;;;;;;;;8.40;99.90;;;;;;5053797;28;19982;-70
2022/03/01 10:59:00;;;;;;;;;;;8.40;99.90;;;;;;5072345;28;19924;-66
2022/03/01 11:01:27;;;;;;;;;;;8.40;99.90;;;;;;5069363;28;19924;-70
2022/03/01 11:03:53;;;;;;;;;;;8.40;99.90;;;;;;5052950;28;19924;-66
2022/03/01 11:06:18;;;;;;;;;;;8.30;99.90;;;;;;5070845;28;19931;-66
2022/03/01 11:08:45;;;;;;;;;;;8.30;99.90;;;;;;5069172;28;19947;-64
2022/03/01 11:11:11;;;;;;;;;;;8.30;99.90;;;;;;5069785;28;20437;-65
2022/03/01 11:13:43;;;;;;;;;;;8.30;99.90;;;;;;5052074;28;20016;-66
2022/03/01 11:16:23;;;;;;;;;;;8.20;99.90;;;;;;5070859;28;19972;-66
2022/03/01 11:18:56;;;;;;;;;;;8.20;99.90;;;;;;5069319;28;20243;-66
2022/03/01 11:21:23;;;;;;;;;;;8.20;99.90;;;;;;5070879;28;19924;-67
2022/03/01 11:23:52;;;;;;;;;;;8.20;99.90;;;;;;5069875;28;20053;-66
2022/03/01 11:26:17;;;;;;;;;;;8.20;99.90;;;;;;5070502;28;19931;-65
2022/03/01 11:28:50;;;;;;;;;;;8.20;99.90;;;;;;5053353;28;20293;-65
2022/03/01 11:31:26;;;;;;;;;;;8.10;99.90;;;;;;5053486;28;19965;-66
2022/03/01 11:34:05;;;;;;;;;;;8.20;99.90;;;;;;5052401;28;19971;-67
2022/03/01 11:36:31;;;;;;;;;;;8.30;99.90;;;;;;5069879;28;20282;-66
2022/03/01 11:39:10;;;;;;;;;;;8.30;99.90;;;;;;5053317;28;20018;-66
2022/03/01 11:41:52;;;;;;;;;;;8.30;99.90;;;;;;5069909;28;19978;-66
2022/03/01 11:44:24;;;;;;;;;;;8.40;99.90;;;;;;5070386;28;19979;-66
2022/03/01 11:46:50;;;;;;;;;;;8.40;99.90;;;;;;5070803;28;19935;-66
2022/03/01 11:49:20;;;;;;;;;;;8.50;99.90;;;;;;5070202;28;19925;-66
2022/03/01 11:51:47;;;;;;;;;;;8.50;99.90;;;;;;5068536;28;19931;-65
2022/03/01 11:54:16;;;;;;;;;;;8.50;99.90;;;;;;5070114;28;19924;-67
2022/03/01 11:56:42;;;;;;;;;;;8.60;99.90;;;;;;5069427;28;20027;-66
2022/03/01 11:59:09;;;;;;;;;;;8.70;99.90;;;;;;5070176;28;20023;-66
2022/03/01 12:01:35;;;;;;;;;;;8.60;99.90;;;;;;5070644;28;20373;-66
2022/03/01 12:04:03;;;;;;;;;;;8.60;99.90;;;;;;5070027;28;20011;-66
2022/03/01 12:06:29;;;;;;;;;;;8.60;99.90;;;;;;5053547;28;20423;-66
2022/03/01 12:08:56;;;;;;;;;;;8.60;99.90;;;;;;5069587;28;19927;-66
2022/03/01 12:11:30;;;;;;;;;;;8.60;99.90;;;;;;5069738;28;19924;-66
2022/03/01 12:14:00;;;;;;;;;;;8.60;99.90;;;;;;5070412;28;20018;-67
2022/03/01 12:16:27;;;;;;;;;;;8.50;99.90;;;;;;5070113;28;19931;-66
2022/03/01 12:19:03;;;;;;;;;;;8.50;99.90;;;;;;5069700;28;19932;-66
2022/03/01 12:21:28;;;;;;;;;;;8.40;99.90;;;;;;5053389;28;19950;-68
2022/03/01 12:23:54;;;;;;;;;;;8.40;99.90;;;;;;5070692;28;19924;-66
2022/03/01 12:26:19;;;;;;;;;;;8.40;99.90;;;;;;5071227;28;20061;-67
2022/03/01 12:28:46;;;;;;;;;;;8.30;99.90;;;;;;5056682;28;20342;-66
2022/03/01 12:31:30;;;;;;;;;;;8.30;99.90;;;;;;5107714;28;19931;-66
2022/03/01 12:33:57;;;;;;;;;;;8.30;99.90;;;;;;5073531;28;20020;-67
2022/03/01 12:36:22;;;;;;;;;;;8.30;99.90;;;;;;5057048;28;20369;-66
2022/03/01 12:38:52;;;;;;;;;;;8.30;99.90;;;;;;5074285;28;19931;-66
2022/03/01 12:41:20;;;;;;;;;;;8.30;99.90;;;;;;5074490;28;19924;-65
2022/03/01 12:43:51;;;;;;;;;;;8.30;99.90;;;;;;5056620;28;19924;-65
2022/03/01 12:46:17;;;;;;;;;;;8.40;99.90;;;;;;5073638;28;19925;-65
2022/03/01 12:48:43;;;;;;;;;;;8.40;99.90;;;;;;5073124;28;20019;-67
2022/03/01 12:51:09;;;;;;;;;;;8.40;99.90;;;;;;5073082;28;19924;-66
2022/03/01 12:53:34;;;;;;;;;;;8.50;99.90;;;;;;5056628;28;19932;-66
2022/03/01 12:56:00;;;;;;;;;;;8.50;99.90;;;;;;5055906;28;19998;-66
2022/03/01 12:58:28;;;;;;;;;;;8.60;99.90;;;;;;5074666;28;19925;-66
2022/03/01 13:01:05;;;;;;;;;;;8.60;99.90;;;;;;5073023;28;19987;-66
2022/03/01 13:03:32;;;;;;;;;;;8.70;99.90;;;;;;5072943;28;19928;-65
2022/03/01 13:06:07;;;;;;;;;;;8.70;99.90;;;;;;5073897;28;19931;-65
2022/03/01 13:08:33;;;;;;;;;;;8.80;99.90;;;;;;5072873;28;19924;-66
2022/03/01 13:10:59;;;;;;;;;;;8.80;99.90;;;;;;5072860;28;20396;-66
2022/03/01 13:13:25;;;;;;;;;;;8.90;99.90;;;;;;5073463;28;20003;-68
2022/03/01 13:15:50;;;;;;;;;;;8.90;99.90;;;;;;5072226;28;19928;-66
2022/03/01 13:18:24;;;;;;;;;;;8.90;99.90;;;;;;5073954;28;20294;-65
2022/03/01 13:20:50;;;;;;;;;;;8.90;99.90;;;;;;5072396;28;19928;-66
2022/03/01 13:23:19;;;;;;;;;;;9.00;99.90;;;;;;5072422;28;20014;-65
2022/03/01 13:25:45;;;;;;;;;;;9.10;99.90;;;;;;5073522;28;19928;-67
2022/03/01 13:28:11;;;;;;;;;;;9.10;99.90;;;;;;5072463;28;19935;-66
2022/03/01 13:30:37;;;;;;;;;;;9.10;99.90;;;;;;5072052;28;19924;-65
2022/03/01 13:33:07;;;;;;;;;;;9.10;99.90;;;;;;5055173;28;19925;-65
2022/03/01 13:35:34;;;;;;;;;;;9.20;99.90;;;;;;5073559;28;19929;-65
2022/03/01 13:38:04;;;;;;;;;;;9.20;99.90;;;;;;5071175;28;19935;-67
2022/03/01 13:40:30;;;;;;;;;;;9.20;99.90;;;;;;5072763;28;19982;-65
2022/03/01 13:43:10;;;;;;;;;;;9.20;99.90;;;;;;5071567;28;19987;-66
2022/03/01 13:45:36;;;;;;;;;;;9.10;99.90;;;;;;5072652;28;19931;-66
2022/03/01 13:48:13;;;;;;;;;;;9.10;99.90;;;;;;5105916;28;19931;-66
2022/03/01 13:50:39;;;;;;;;;;;9.00;99.90;;;;;;5072050;28;19936;-66
2022/03/01 13:53:24;;;;;;;;;;;9.00;99.90;;;;;;5071281;28;20015;-66
2022/03/01 13:55:52;;;;;;;;;;;9.00;99.90;;;;;;5070787;28;20433;-65
2022/03/01 13:58:20;;;;;;;;;;;9.00;99.90;;;;;;5071686;28;19925;-66
2022/03/01 14:00:47;;;;;;;;;;;9.00;99.90;;;;;;5106142;28;20389;-67
2022/03/01 14:03:14;;;;;;;;;;;8.90;99.90;;;;;;5071673;28;19933;-66
2022/03/01 14:05:44;;;;;;;;;;;9.00;99.90;;;;;;5071843;28;20011;-66
2022/03/01 14:08:12;;;;;;;;;;;9.00;99.90;;;;;;5071616;28;19936;-65
2022/03/01 14:10:40;;;;;;;;;;;8.90;99.90;;;;;;5072835;28;19940;-66
2022/03/01 14:13:15;;;;;;;;;;;8.90;99.90;;;;;;5071278;28;20077;-65
2022/03/01 14:15:43;;;;;;;;;;;8.90;99.90;;;;;;5071913;28;19924;-67
2022/03/01 14:18:09;;;;;;;;;;;8.90;99.90;;;;;;5071265;28;19925;-66
2022/03/01 14:20:35;;;;;;;;;;;8.80;99.90;;;;;;5105612;28;19932;-66
2022/03/01 14:23:00;;;;;;;;;;;8.80;99.90;;;;;;5070835;28;19946;-66
2022/03/01 14:25:26;;;;;;;;;;;8.80;99.90;;;;;;5071396;28;19999;-66
2022/03/01 14:27:52;;;;;;;;;;;8.70;99.90;;;;;;5071057;28;19925;-70